Portada
METAR-TAF:

METAR-TAF

Aeroports :

Griffith, Austràlia

latitud: 34-15-06S, longitud: 146-04-00E, altitud: 134 m

Observació

L'informe es va fer fa 23 minuts, a les 14:00 UTC
Vent calma
Temperatura 3°C
Humitat 65%
Pressió 1013 hPa
Visibilitat 10 km o més

METAR: YGTH 161400Z AUTO 00000KT 9999 // NCD 03/M03 Q1013

Hora: 00:23 (14:23 UTC)


TAF: manca

Observacions i pronòstics meteorològics de més de 4000 aeroports (METAR i TAF).

Les estacions disponibles són els punts grocs i vermells al mapa.

Posi el ratolí al punt desitjat per veure el nom de l'estació.

Feu clic per veure les observacions i els pronòstics meteorològics.

Per canviar el mapa: feu clic els botons verds amb una creu de color negre per apropar; al botó verd amb un guió per allunyar la imatge; o en les fletxes verdes per a mapes adjacents.


METAR-TAF: